sensor_id;sensor_type;location;lat;lon;timestamp;P1;durP1;ratioP1;P2;durP2;ratioP2
31095;SDS011;17749;51.962;8.560;2023-02-07T06:00:36;17.85;;;10.40;;
31095;SDS011;17749;51.962;8.560;2023-02-07T06:03:03;27.15;;;14.07;;
31095;SDS011;17749;51.962;8.560;2023-02-07T06:05:29;26.33;;;12.63;;
31095;SDS011;17749;51.962;8.560;2023-02-07T06:07:57;28.65;;;14.18;;
31095;SDS011;17749;51.962;8.560;2023-02-07T06:10:24;23.92;;;11.68;;
31095;SDS011;17749;51.962;8.560;2023-02-07T06:12:51;22.70;;;12.07;;
31095;SDS011;17749;51.962;8.560;2023-02-07T06:15:18;19.63;;;11.80;;
31095;SDS011;17749;51.962;8.560;2023-02-07T06:17:45;22.00;;;12.52;;
31095;SDS011;17749;51.962;8.560;2023-02-07T06:20:12;23.52;;;12.38;;
31095;SDS011;17749;51.962;8.560;2023-02-07T06:22:39;22.88;;;12.20;;
31095;SDS011;17749;51.962;8.560;2023-02-07T06:25:06;21.20;;;12.32;;
31095;SDS011;17749;51.962;8.560;2023-02-07T06:27:38;22.75;;;12.38;;
31095;SDS011;17749;51.962;8.560;2023-02-07T06:30:06;22.80;;;12.30;;
31095;SDS011;17749;51.962;8.560;2023-02-07T06:32:33;20.60;;;12.30;;
31095;SDS011;17749;51.962;8.560;2023-02-07T06:35:00;19.23;;;11.45;;
31095;SDS011;17749;51.962;8.560;2023-02-07T06:37:27;21.27;;;11.18;;
31095;SDS011;17749;51.962;8.560;2023-02-07T06:39:54;18.85;;;10.73;;
31095;SDS011;17749;51.962;8.560;2023-02-07T06:42:21;20.02;;;10.77;;
31095;SDS011;17749;51.962;8.560;2023-02-07T06:44:48;20.30;;;10.75;;
31095;SDS011;17749;51.962;8.560;2023-02-07T06:47:16;17.90;;;10.65;;
31095;SDS011;17749;51.962;8.560;2023-02-07T06:49:45;19.15;;;11.65;;
31095;SDS011;17749;51.962;8.560;2023-02-07T06:52:13;19.10;;;11.52;;
31095;SDS011;17749;51.962;8.560;2023-02-07T06:54:40;21.05;;;11.90;;
31095;SDS011;17749;51.962;8.560;2023-02-07T06:57:07;20.30;;;11.45;;
31095;SDS011;17749;51.962;8.560;2023-02-07T06:59:34;19.92;;;11.32;;
31095;SDS011;17749;51.962;8.560;2023-02-07T07:02:01;21.98;;;12.43;;
31095;SDS011;17749;51.962;8.560;2023-02-07T07:04:29;22.33;;;12.95;;
31095;SDS011;17749;51.962;8.560;2023-02-07T07:06:56;22.35;;;12.63;;
31095;SDS011;17749;51.962;8.560;2023-02-07T07:09:24;21.42;;;12.45;;
31095;SDS011;17749;51.962;8.560;2023-02-07T07:11:51;21.52;;;12.27;;
31095;SDS011;17749;51.962;8.560;2023-02-07T07:14:18;21.90;;;12.73;;
31095;SDS011;17749;51.962;8.560;2023-02-07T07:16:45;19.40;;;11.73;;
31095;SDS011;17749;51.962;8.560;2023-02-07T07:19:12;22.10;;;11.73;;
31095;SDS011;17749;51.962;8.560;2023-02-07T07:21:39;21.48;;;11.70;;
31095;SDS011;17749;51.962;8.560;2023-02-07T07:24:06;24.60;;;12.40;;
31095;SDS011;17749;51.962;8.560;2023-02-07T07:26:33;22.27;;;13.10;;
31095;SDS011;17749;51.962;8.560;2023-02-07T07:29:15;22.13;;;12.00;;
31095;SDS011;17749;51.962;8.560;2023-02-07T07:31:42;20.70;;;11.57;;
31095;SDS011;17749;51.962;8.560;2023-02-07T07:34:10;21.63;;;12.27;;
31095;SDS011;17749;51.962;8.560;2023-02-07T07:36:37;22.92;;;13.02;;
31095;SDS011;17749;51.962;8.560;2023-02-07T07:39:04;20.98;;;12.65;;
31095;SDS011;17749;51.962;8.560;2023-02-07T07:41:32;23.53;;;13.37;;
31095;SDS011;17749;51.962;8.560;2023-02-07T07:43:59;18.80;;;11.40;;
31095;SDS011;17749;51.962;8.560;2023-02-07T07:46:26;20.17;;;12.23;;
31095;SDS011;17749;51.962;8.560;2023-02-07T07:48:53;20.75;;;11.82;;
31095;SDS011;17749;51.962;8.560;2023-02-07T07:51:20;20.35;;;12.25;;
31095;SDS011;17749;51.962;8.560;2023-02-07T07:53:47;24.15;;;13.07;;
31095;SDS011;17749;51.962;8.560;2023-02-07T07:56:14;23.58;;;12.18;;
31095;SDS011;17749;51.962;8.560;2023-02-07T07:58:40;20.90;;;12.38;;
31095;SDS011;17749;51.962;8.560;2023-02-07T08:01:07;20.75;;;11.68;;
31095;SDS011;17749;51.962;8.560;2023-02-07T08:03:34;21.52;;;12.90;;
31095;SDS011;17749;51.962;8.560;2023-02-07T08:06:01;21.20;;;12.40;;
31095;SDS011;17749;51.962;8.560;2023-02-07T08:08:28;21.95;;;12.60;;
31095;SDS011;17749;51.962;8.560;2023-02-07T08:10:59;21.75;;;12.23;;
31095;SDS011;17749;51.962;8.560;2023-02-07T08:13:27;23.63;;;12.68;;
31095;SDS011;17749;51.962;8.560;2023-02-07T08:15:58;22.70;;;12.55;;
31095;SDS011;17749;51.962;8.560;2023-02-07T08:18:25;23.50;;;13.25;;
31095;SDS011;17749;51.962;8.560;2023-02-07T08:20:52;23.75;;;15.70;;
31095;SDS011;17749;51.962;8.560;2023-02-07T08:23:19;19.42;;;12.35;;
31095;SDS011;17749;51.962;8.560;2023-02-07T08:25:46;23.77;;;13.27;;
31095;SDS011;17749;51.962;8.560;2023-02-07T08:28:15;22.10;;;12.45;;
31095;SDS011;17749;51.962;8.560;2023-02-07T08:30:42;21.95;;;14.02;;
31095;SDS011;17749;51.962;8.560;2023-02-07T08:33:13;24.25;;;13.50;;
31095;SDS011;17749;51.962;8.560;2023-02-07T08:35:41;22.23;;;12.88;;
31095;SDS011;17749;51.962;8.560;2023-02-07T08:38:09;22.92;;;11.55;;
31095;SDS011;17749;51.962;8.560;2023-02-07T08:40:36;25.02;;;13.50;;
31095;SDS011;17749;51.962;8.560;2023-02-07T08:43:04;24.40;;;14.05;;
31095;SDS011;17749;51.962;8.560;2023-02-07T08:45:32;21.33;;;12.68;;
31095;SDS011;17749;51.962;8.560;2023-02-07T08:47:59;18.52;;;11.77;;
31095;SDS011;17749;51.962;8.560;2023-02-07T08:50:26;20.08;;;11.88;;
31095;SDS011;17749;51.962;8.560;2023-02-07T08:52:53;22.00;;;12.40;;
31095;SDS011;17749;51.962;8.560;2023-02-07T08:55:20;21.70;;;11.93;;
31095;SDS011;17749;51.962;8.560;2023-02-07T08:57:47;21.58;;;12.52;;
31095;SDS011;17749;51.962;8.560;2023-02-07T09:00:14;23.77;;;15.00;;
31095;SDS011;17749;51.962;8.560;2023-02-07T09:02:42;34.22;;;16.98;;
31095;SDS011;17749;51.962;8.560;2023-02-07T09:05:09;25.10;;;14.60;;
31095;SDS011;17749;51.962;8.560;2023-02-07T09:07:37;24.75;;;13.32;;
31095;SDS011;17749;51.962;8.560;2023-02-07T09:10:04;24.67;;;13.93;;
31095;SDS011;17749;51.962;8.560;2023-02-07T09:12:32;21.35;;;13.45;;
31095;SDS011;17749;51.962;8.560;2023-02-07T09:15:00;23.02;;;13.05;;
31095;SDS011;17749;51.962;8.560;2023-02-07T09:17:28;24.55;;;14.07;;
31095;SDS011;17749;51.962;8.560;2023-02-07T09:19:55;22.13;;;13.85;;
31095;SDS011;17749;51.962;8.560;2023-02-07T09:22:22;24.00;;;14.35;;
31095;SDS011;17749;51.962;8.560;2023-02-07T09:24:49;25.80;;;14.32;;
31095;SDS011;17749;51.962;8.560;2023-02-07T09:27:16;20.63;;;12.45;;
31095;SDS011;17749;51.962;8.560;2023-02-07T09:29:42;22.67;;;11.60;;
31095;SDS011;17749;51.962;8.560;2023-02-07T09:32:10;26.52;;;13.45;;
31095;SDS011;17749;51.962;8.560;2023-02-07T09:34:36;23.08;;;13.73;;
31095;SDS011;17749;51.962;8.560;2023-02-07T09:37:03;20.20;;;12.43;;
31095;SDS011;17749;51.962;8.560;2023-02-07T09:39:30;21.40;;;12.10;;
31095;SDS011;17749;51.962;8.560;2023-02-07T09:42:02;25.00;;;13.75;;
31095;SDS011;17749;51.962;8.560;2023-02-07T09:47:24;25.55;;;13.07;;
31095;SDS011;17749;51.962;8.560;2023-02-07T09:49:56;22.45;;;12.70;;
31095;SDS011;17749;51.962;8.560;2023-02-07T09:52:32;21.75;;;12.95;;
31095;SDS011;17749;51.962;8.560;2023-02-07T09:55:05;20.33;;;12.02;;
31095;SDS011;17749;51.962;8.560;2023-02-07T09:57:41;87.03;;;39.17;;
31095;SDS011;17749;51.962;8.560;2023-02-07T10:00:19;25.92;;;14.60;;
31095;SDS011;17749;51.962;8.560;2023-02-07T10:05:25;22.67;;;12.50;;
31095;SDS011;17749;51.962;8.560;2023-02-07T10:07:56;19.70;;;12.60;;
31095;SDS011;17749;51.962;8.560;2023-02-07T10:10:31;20.75;;;13.60;;
31095;SDS011;17749;51.962;8.560;2023-02-07T10:16:15;18.88;;;12.07;;
31095;SDS011;17749;51.962;8.560;2023-02-07T10:26:59;22.17;;;12.15;;
31095;SDS011;17749;51.962;8.560;2023-02-07T10:32:14;20.05;;;11.35;;
31095;SDS011;17749;51.962;8.560;2023-02-07T10:34:48;19.88;;;11.13;;
31095;SDS011;17749;51.962;8.560;2023-02-07T10:37:20;19.48;;;10.93;;
31095;SDS011;17749;51.962;8.560;2023-02-07T10:39:53;21.20;;;10.90;;
31095;SDS011;17749;51.962;8.560;2023-02-07T10:42:25;16.95;;;9.90;;
31095;SDS011;17749;51.962;8.560;2023-02-07T10:44:54;20.52;;;11.40;;
31095;SDS011;17749;51.962;8.560;2023-02-07T10:47:21;17.88;;;10.50;;
31095;SDS011;17749;51.962;8.560;2023-02-07T10:49:52;18.45;;;10.80;;
31095;SDS011;17749;51.962;8.560;2023-02-07T10:52:33;17.27;;;9.63;;
31095;SDS011;17749;51.962;8.560;2023-02-07T10:55:06;17.13;;;9.90;;
31095;SDS011;17749;51.962;8.560;2023-02-07T10:57:34;17.08;;;9.23;;
31095;SDS011;17749;51.962;8.560;2023-02-07T11:02:50;17.55;;;9.80;;
31095;SDS011;17749;51.962;8.560;2023-02-07T11:10:41;14.30;;;8.60;;
31095;SDS011;17749;51.962;8.560;2023-02-07T11:13:11;13.10;;;8.18;;
31095;SDS011;17749;51.962;8.560;2023-02-07T11:21:04;16.17;;;7.57;;
31095;SDS011;17749;51.962;8.560;2023-02-07T11:23:46;12.57;;;8.43;;
31095;SDS011;17749;51.962;8.560;2023-02-07T11:26:18;10.13;;;6.57;;
31095;SDS011;17749;51.962;8.560;2023-02-07T11:31:40;11.20;;;6.95;;
31095;SDS011;17749;51.962;8.560;2023-02-07T11:36:48;13.55;;;7.47;;
31095;SDS011;17749;51.962;8.560;2023-02-07T11:39:16;13.23;;;8.32;;
31095;SDS011;17749;51.962;8.560;2023-02-07T11:41:58;12.88;;;7.68;;
31095;SDS011;17749;51.962;8.560;2023-02-07T11:44:27;11.32;;;8.18;;
31095;SDS011;17749;51.962;8.560;2023-02-07T11:46:57;10.30;;;6.43;;
31095;SDS011;17749;51.962;8.560;2023-02-07T11:49:34;12.07;;;6.70;;
31095;SDS011;17749;51.962;8.560;2023-02-07T11:52:08;8.63;;;6.13;;
31095;SDS011;17749;51.962;8.560;2023-02-07T11:54:37;10.20;;;7.00;;
31095;SDS011;17749;51.962;8.560;2023-02-07T11:59:36;8.48;;;5.40;;
31095;SDS011;17749;51.962;8.560;2023-02-07T12:02:21;11.10;;;6.57;;
31095;SDS011;17749;51.962;8.560;2023-02-07T12:04:50;9.77;;;6.32;;
31095;SDS011;17749;51.962;8.560;2023-02-07T12:07:21;8.57;;;5.93;;
31095;SDS011;17749;51.962;8.560;2023-02-07T12:10:43;9.20;;;5.72;;
31095;SDS011;17749;51.962;8.560;2023-02-07T12:13:06;10.10;;;6.72;;
31095;SDS011;17749;51.962;8.560;2023-02-07T12:15:38;11.30;;;6.15;;
31095;SDS011;17749;51.962;8.560;2023-02-07T12:23:12;10.75;;;6.38;;
31095;SDS011;17749;51.962;8.560;2023-02-07T12:26:12;8.27;;;5.05;;
31095;SDS011;17749;51.962;8.560;2023-02-07T12:31:49;6.05;;;3.83;;
31095;SDS011;17749;51.962;8.560;2023-02-07T12:37:19;11.15;;;5.03;;
31095;SDS011;17749;51.962;8.560;2023-02-07T12:45:36;8.82;;;5.13;;
31095;SDS011;17749;51.962;8.560;2023-02-07T12:53:45;8.30;;;4.75;;
31095;SDS011;17749;51.962;8.560;2023-02-07T12:56:44;7.82;;;4.88;;
31095;SDS011;17749;51.962;8.560;2023-02-07T13:02:39;7.18;;;4.40;;
31095;SDS011;17749;51.962;8.560;2023-02-07T13:08:28;6.75;;;4.50;;
31095;SDS011;17749;51.962;8.560;2023-02-07T13:16:57;6.47;;;4.50;;
31095;SDS011;17749;51.962;8.560;2023-02-07T13:19:49;9.02;;;4.97;;
31095;SDS011;17749;51.962;8.560;2023-02-07T13:22:37;8.40;;;5.82;;
31095;SDS011;17749;51.962;8.560;2023-02-07T13:25:15;6.95;;;4.80;;
31095;SDS011;17749;51.962;8.560;2023-02-07T13:27:48;7.72;;;5.07;;
31095;SDS011;17749;51.962;8.560;2023-02-07T13:30:18;6.00;;;4.43;;
31095;SDS011;17749;51.962;8.560;2023-02-07T13:32:46;6.90;;;4.43;;
31095;SDS011;17749;51.962;8.560;2023-02-07T13:35:19;7.15;;;4.38;;
31095;SDS011;17749;51.962;8.560;2023-02-07T13:43:47;6.70;;;4.87;;
31095;SDS011;17749;51.962;8.560;2023-02-07T13:49:42;6.68;;;4.35;;
31095;SDS011;17749;51.962;8.560;2023-02-07T13:52:33;5.75;;;3.90;;
31095;SDS011;17749;51.962;8.560;2023-02-07T13:57:44;8.27;;;4.65;;
31095;SDS011;17749;51.962;8.560;2023-02-07T14:00:30;7.00;;;4.45;;
31095;SDS011;17749;51.962;8.560;2023-02-07T14:03:03;6.13;;;3.88;;
31095;SDS011;17749;51.962;8.560;2023-02-07T14:05:38;7.82;;;4.97;;
31095;SDS011;17749;51.962;8.560;2023-02-07T14:13:27;6.55;;;4.28;;
31095;SDS011;17749;51.962;8.560;2023-02-07T14:16:07;10.43;;;3.95;;
31095;SDS011;17749;51.962;8.560;2023-02-07T14:18:45;7.00;;;4.55;;
31095;SDS011;17749;51.962;8.560;2023-02-07T14:21:22;5.38;;;3.55;;
31095;SDS011;17749;51.962;8.560;2023-02-07T14:23:58;7.13;;;4.70;;
31095;SDS011;17749;51.962;8.560;2023-02-07T14:31:49;7.88;;;3.90;;
31095;SDS011;17749;51.962;8.560;2023-02-07T14:34:21;6.43;;;3.90;;
31095;SDS011;17749;51.962;8.560;2023-02-07T14:36:52;6.38;;;3.75;;
31095;SDS011;17749;51.962;8.560;2023-02-07T14:39:32;6.63;;;3.58;;
31095;SDS011;17749;51.962;8.560;2023-02-07T14:42:01;8.23;;;5.32;;
31095;SDS011;17749;51.962;8.560;2023-02-07T14:44:37;8.45;;;5.32;;
31095;SDS011;17749;51.962;8.560;2023-02-07T14:47:07;7.13;;;4.03;;
31095;SDS011;17749;51.962;8.560;2023-02-07T14:49:46;8.68;;;4.32;;
31095;SDS011;17749;51.962;8.560;2023-02-07T14:52:21;7.65;;;5.25;;
31095;SDS011;17749;51.962;8.560;2023-02-07T14:54:52;13.98;;;7.20;;
31095;SDS011;17749;51.962;8.560;2023-02-07T14:57:36;15.20;;;8.70;;
31095;SDS011;17749;51.962;8.560;2023-02-07T15:05:24;16.77;;;8.95;;
31095;SDS011;17749;51.962;8.560;2023-02-07T15:10:33;13.98;;;9.63;;
31095;SDS011;17749;51.962;8.560;2023-02-07T15:13:20;14.70;;;9.68;;
31095;SDS011;17749;51.962;8.560;2023-02-07T15:15:55;16.23;;;10.30;;
31095;SDS011;17749;51.962;8.560;2023-02-07T15:18:35;20.27;;;13.65;;
31095;SDS011;17749;51.962;8.560;2023-02-07T15:21:10;16.95;;;9.60;;
31095;SDS011;17749;51.962;8.560;2023-02-07T15:23:52;14.68;;;9.65;;
31095;SDS011;17749;51.962;8.560;2023-02-07T15:26:23;14.20;;;9.13;;
31095;SDS011;17749;51.962;8.560;2023-02-07T15:28:58;13.35;;;8.25;;
31095;SDS011;17749;51.962;8.560;2023-02-07T15:31:36;14.90;;;8.85;;
31095;SDS011;17749;51.962;8.560;2023-02-07T15:34:05;15.07;;;8.88;;
31095;SDS011;17749;51.962;8.560;2023-02-07T15:36:41;14.77;;;9.75;;
31095;SDS011;17749;51.962;8.560;2023-02-07T15:39:13;15.52;;;10.38;;
31095;SDS011;17749;51.962;8.560;2023-02-07T15:41:45;16.38;;;10.02;;
31095;SDS011;17749;51.962;8.560;2023-02-07T15:44:26;15.00;;;9.85;;
31095;SDS011;17749;51.962;8.560;2023-02-07T15:47:02;14.85;;;8.88;;
31095;SDS011;17749;51.962;8.560;2023-02-07T15:49:33;16.52;;;10.82;;
31095;SDS011;17749;51.962;8.560;2023-02-07T15:54:52;19.27;;;10.15;;
31095;SDS011;17749;51.962;8.560;2023-02-07T15:57:25;15.20;;;10.38;;
31095;SDS011;17749;51.962;8.560;2023-02-07T15:59:59;19.73;;;11.80;;
31095;SDS011;17749;51.962;8.560;2023-02-07T16:02:39;19.52;;;10.98;;
31095;SDS011;17749;51.962;8.560;2023-02-07T16:05:09;16.30;;;11.13;;
31095;SDS011;17749;51.962;8.560;2023-02-07T16:07:38;17.30;;;10.68;;
31095;SDS011;17749;51.962;8.560;2023-02-07T16:12:59;18.05;;;10.70;;
31095;SDS011;17749;51.962;8.560;2023-02-07T16:15:29;21.30;;;12.10;;
31095;SDS011;17749;51.962;8.560;2023-02-07T16:21:17;20.95;;;12.73;;
31095;SDS011;17749;51.962;8.560;2023-02-07T16:23:51;16.88;;;10.68;;
31095;SDS011;17749;51.962;8.560;2023-02-07T16:26:23;16.10;;;10.98;;
31095;SDS011;17749;51.962;8.560;2023-02-07T16:28:53;19.60;;;11.48;;
31095;SDS011;17749;51.962;8.560;2023-02-07T16:31:20;19.20;;;11.23;;
31095;SDS011;17749;51.962;8.560;2023-02-07T16:33:47;18.13;;;11.57;;
31095;SDS011;17749;51.962;8.560;2023-02-07T16:36:14;20.20;;;11.90;;
31095;SDS011;17749;51.962;8.560;2023-02-07T16:38:43;19.02;;;12.00;;
31095;SDS011;17749;51.962;8.560;2023-02-07T16:41:30;19.05;;;11.70;;
31095;SDS011;17749;51.962;8.560;2023-02-07T16:43:59;23.05;;;11.70;;
31095;SDS011;17749;51.962;8.560;2023-02-07T16:46:28;19.75;;;12.52;;
31095;SDS011;17749;51.962;8.560;2023-02-07T16:48:55;23.77;;;13.57;;
31095;SDS011;17749;51.962;8.560;2023-02-07T16:51:22;24.00;;;14.27;;
31095;SDS011;17749;51.962;8.560;2023-02-07T16:53:49;29.48;;;16.15;;
31095;SDS011;17749;51.962;8.560;2023-02-07T16:56:24;30.42;;;16.05;;
31095;SDS011;17749;51.962;8.560;2023-02-07T16:58:52;26.17;;;15.38;;
31095;SDS011;17749;51.962;8.560;2023-02-07T17:01:19;28.80;;;16.17;;
31095;SDS011;17749;51.962;8.560;2023-02-07T17:03:47;30.25;;;16.55;;
31095;SDS011;17749;51.962;8.560;2023-02-07T17:06:15;31.60;;;17.23;;
31095;SDS011;17749;51.962;8.560;2023-02-07T17:08:43;31.13;;;17.13;;
31095;SDS011;17749;51.962;8.560;2023-02-07T17:11:17;28.50;;;17.15;;
31095;SDS011;17749;51.962;8.560;2023-02-07T17:13:54;29.20;;;18.00;;
31095;SDS011;17749;51.962;8.560;2023-02-07T17:16:22;26.48;;;15.75;;
31095;SDS011;17749;51.962;8.560;2023-02-07T17:18:51;27.63;;;14.67;;
31095;SDS011;17749;51.962;8.560;2023-02-07T17:21:18;24.55;;;12.88;;
31095;SDS011;17749;51.962;8.560;2023-02-07T17:23:47;21.33;;;12.95;;
31095;SDS011;17749;51.962;8.560;2023-02-07T17:26:22;21.55;;;11.95;;
31095;SDS011;17749;51.962;8.560;2023-02-07T17:28:53;25.27;;;13.32;;
31095;SDS011;17749;51.962;8.560;2023-02-07T17:31:20;23.52;;;12.73;;
31095;SDS011;17749;51.962;8.560;2023-02-07T17:33:48;23.30;;;13.00;;
31095;SDS011;17749;51.962;8.560;2023-02-07T17:36:17;19.77;;;12.10;;
31095;SDS011;17749;51.962;8.560;2023-02-07T17:38:44;21.58;;;12.70;;
31095;SDS011;17749;51.962;8.560;2023-02-07T17:41:12;23.70;;;13.32;;
31095;SDS011;17749;51.962;8.560;2023-02-07T17:43:40;20.37;;;12.73;;
31095;SDS011;17749;51.962;8.560;2023-02-07T17:46:13;21.20;;;12.63;;
31095;SDS011;17749;51.962;8.560;2023-02-07T17:48:43;29.27;;;13.27;;
31095;SDS011;17749;51.962;8.560;2023-02-07T17:51:13;21.60;;;12.30;;
31095;SDS011;17749;51.962;8.560;2023-02-07T17:53:40;21.25;;;12.45;;
31095;SDS011;17749;51.962;8.560;2023-02-07T17:56:08;19.92;;;12.57;;
31095;SDS011;17749;51.962;8.560;2023-02-07T17:58:53;20.55;;;11.35;;
31095;SDS011;17749;51.962;8.560;2023-02-07T18:01:21;21.63;;;11.10;;
31095;SDS011;17749;51.962;8.560;2023-02-07T18:03:50;19.52;;;11.30;;
31095;SDS011;17749;51.962;8.560;2023-02-07T18:06:22;18.38;;;10.57;;
31095;SDS011;17749;51.962;8.560;2023-02-07T18:08:50;21.08;;;11.45;;
31095;SDS011;17749;51.962;8.560;2023-02-07T18:11:20;28.80;;;12.82;;
31095;SDS011;17749;51.962;8.560;2023-02-07T18:13:47;29.88;;;14.45;;
31095;SDS011;17749;51.962;8.560;2023-02-07T18:16:19;35.22;;;16.05;;
31095;SDS011;17749;51.962;8.560;2023-02-07T18:18:48;28.70;;;16.08;;
31095;SDS011;17749;51.962;8.560;2023-02-07T18:21:16;26.73;;;15.50;;
31095;SDS011;17749;51.962;8.560;2023-02-07T18:23:43;27.95;;;14.68;;
31095;SDS011;17749;51.962;8.560;2023-02-07T18:26:11;34.63;;;17.63;;
31095;SDS011;17749;51.962;8.560;2023-02-07T18:31:11;25.17;;;14.82;;
31095;SDS011;17749;51.962;8.560;2023-02-07T18:33:44;31.38;;;16.90;;
31095;SDS011;17749;51.962;8.560;2023-02-07T18:36:12;31.65;;;16.77;;
31095;SDS011;17749;51.962;8.560;2023-02-07T18:38:39;30.98;;;16.33;;
31095;SDS011;17749;51.962;8.560;2023-02-07T18:41:13;30.67;;;15.98;;
31095;SDS011;17749;51.962;8.560;2023-02-07T18:43:41;30.70;;;16.15;;
31095;SDS011;17749;51.962;8.560;2023-02-07T18:46:09;30.17;;;14.95;;
31095;SDS011;17749;51.962;8.560;2023-02-07T18:48:37;27.97;;;14.20;;
31095;SDS011;17749;51.962;8.560;2023-02-07T18:51:05;26.25;;;14.93;;
31095;SDS011;17749;51.962;8.560;2023-02-07T18:53:36;22.92;;;12.93;;
31095;SDS011;17749;51.962;8.560;2023-02-07T18:56:05;22.42;;;12.77;;
31095;SDS011;17749;51.962;8.560;2023-02-07T18:58:33;26.25;;;13.52;;
31095;SDS011;17749;51.962;8.560;2023-02-07T19:01:04;26.35;;;12.15;;
31095;SDS011;17749;51.962;8.560;2023-02-07T19:03:36;22.02;;;11.68;;
31095;SDS011;17749;51.962;8.560;2023-02-07T19:06:12;25.30;;;12.85;;
31095;SDS011;17749;51.962;8.560;2023-02-07T19:09:02;21.15;;;11.88;;
31095;SDS011;17749;51.962;8.560;2023-02-07T19:11:29;22.35;;;12.13;;
31095;SDS011;17749;51.962;8.560;2023-02-07T19:13:56;20.30;;;12.00;;
31095;SDS011;17749;51.962;8.560;2023-02-07T19:16:24;20.90;;;13.15;;
31095;SDS011;17749;51.962;8.560;2023-02-07T19:18:51;23.15;;;13.38;;
31095;SDS011;17749;51.962;8.560;2023-02-07T19:21:20;24.15;;;14.40;;
31095;SDS011;17749;51.962;8.560;2023-02-07T19:23:53;26.35;;;15.25;;
31095;SDS011;17749;51.962;8.560;2023-02-07T19:26:21;23.10;;;14.68;;
31095;SDS011;17749;51.962;8.560;2023-02-07T19:28:50;19.80;;;12.70;;
31095;SDS011;17749;51.962;8.560;2023-02-07T19:31:18;19.13;;;12.85;;
31095;SDS011;17749;51.962;8.560;2023-02-07T19:33:46;18.98;;;12.30;;
31095;SDS011;17749;51.962;8.560;2023-02-07T19:36:15;21.85;;;12.95;;
31095;SDS011;17749;51.962;8.560;2023-02-07T19:38:43;19.50;;;10.93;;
31095;SDS011;17749;51.962;8.560;2023-02-07T19:41:12;19.27;;;11.23;;
31095;SDS011;17749;51.962;8.560;2023-02-07T19:43:38;18.83;;;11.45;;
31095;SDS011;17749;51.962;8.560;2023-02-07T19:46:07;18.98;;;10.23;;
31095;SDS011;17749;51.962;8.560;2023-02-07T19:48:34;19.95;;;10.63;;
31095;SDS011;17749;51.962;8.560;2023-02-07T19:51:02;17.60;;;10.85;;
31095;SDS011;17749;51.962;8.560;2023-02-07T19:53:31;17.30;;;11.23;;
31095;SDS011;17749;51.962;8.560;2023-02-07T19:56:02;15.88;;;10.50;;
31095;SDS011;17749;51.962;8.560;2023-02-07T19:58:31;18.92;;;11.05;;
31095;SDS011;17749;51.962;8.560;2023-02-07T20:00:59;16.83;;;9.45;;
31095;SDS011;17749;51.962;8.560;2023-02-07T20:03:27;15.38;;;9.38;;
31095;SDS011;17749;51.962;8.560;2023-02-07T20:05:56;20.50;;;11.02;;
31095;SDS011;17749;51.962;8.560;2023-02-07T20:08:25;18.35;;;10.65;;
31095;SDS011;17749;51.962;8.560;2023-02-07T20:10:52;21.85;;;12.38;;
31095;SDS011;17749;51.962;8.560;2023-02-07T20:13:19;20.33;;;11.50;;
31095;SDS011;17749;51.962;8.560;2023-02-07T20:15:46;23.83;;;13.20;;
31095;SDS011;17749;51.962;8.560;2023-02-07T20:18:13;25.13;;;14.07;;
31095;SDS011;17749;51.962;8.560;2023-02-07T20:20:41;27.60;;;15.07;;
31095;SDS011;17749;51.962;8.560;2023-02-07T20:23:09;25.02;;;13.95;;
31095;SDS011;17749;51.962;8.560;2023-02-07T20:25:37;25.17;;;15.32;;
31095;SDS011;17749;51.962;8.560;2023-02-07T20:28:05;27.52;;;13.13;;
31095;SDS011;17749;51.962;8.560;2023-02-07T20:30:34;25.23;;;15.23;;
31095;SDS011;17749;51.962;8.560;2023-02-07T20:33:01;26.08;;;14.00;;
31095;SDS011;17749;51.962;8.560;2023-02-07T20:35:28;25.90;;;12.35;;
31095;SDS011;17749;51.962;8.560;2023-02-07T20:37:55;20.70;;;11.07;;
31095;SDS011;17749;51.962;8.560;2023-02-07T20:40:22;22.15;;;11.02;;
31095;SDS011;17749;51.962;8.560;2023-02-07T20:42:49;21.85;;;12.25;;
31095;SDS011;17749;51.962;8.560;2023-02-07T20:45:16;19.65;;;10.73;;
31095;SDS011;17749;51.962;8.560;2023-02-07T20:47:43;21.80;;;11.00;;
31095;SDS011;17749;51.962;8.560;2023-02-07T20:50:10;21.73;;;11.50;;
31095;SDS011;17749;51.962;8.560;2023-02-07T20:52:37;18.80;;;10.95;;
31095;SDS011;17749;51.962;8.560;2023-02-07T20:55:04;20.75;;;10.80;;
31095;SDS011;17749;51.962;8.560;2023-02-07T20:57:31;17.10;;;9.48;;
31095;SDS011;17749;51.962;8.560;2023-02-07T20:59:58;20.42;;;10.75;;
31095;SDS011;17749;51.962;8.560;2023-02-07T21:02:25;15.60;;;8.60;;
31095;SDS011;17749;51.962;8.560;2023-02-07T21:04:52;17.48;;;10.38;;
31095;SDS011;17749;51.962;8.560;2023-02-07T21:07:19;15.70;;;9.05;;
31095;SDS011;17749;51.962;8.560;2023-02-07T21:09:46;18.73;;;10.50;;
31095;SDS011;17749;51.962;8.560;2023-02-07T21:12:13;16.67;;;9.38;;
31095;SDS011;17749;51.962;8.560;2023-02-07T21:14:40;15.43;;;8.23;;
31095;SDS011;17749;51.962;8.560;2023-02-07T21:17:07;15.70;;;8.43;;
31095;SDS011;17749;51.962;8.560;2023-02-07T21:19:35;18.60;;;9.40;;
31095;SDS011;17749;51.962;8.560;2023-02-07T21:22:02;14.45;;;9.32;;
31095;SDS011;17749;51.962;8.560;2023-02-07T21:24:30;17.35;;;8.75;;
31095;SDS011;17749;51.962;8.560;2023-02-07T21:26:56;14.60;;;8.95;;
31095;SDS011;17749;51.962;8.560;2023-02-07T21:29:24;15.98;;;9.10;;
